Time;durP1;ratioP1;P1;durP2;ratioP2;P2;SDS_P1;SDS_P2;PMS_P1;PMS_P2;Temp;Humidity;BMP_temperature;BMP_pressure;BME280_temperature;BME280_humidity;BME280_pressure;Samples;Min_cycle;Max_cycle;Signal;HPM_P1;HPM_P2
2021/04/29 00:06:24;;;;;;;20.60;11.70;;;12.00;99.90;;;-143.32;49.15;55527.84;4920709;29;20483;-91
2021/04/29 00:09:12;;;;;;;25.30;11.13;;;11.90;99.90;;;-143.32;49.23;55552.09;4916908;29;20997;-90
2021/04/29 00:12:10;;;;;;;19.97;10.93;;;12.00;99.90;;;-143.32;49.89;55523.78;4920722;29;20442;-89
2021/04/29 00:14:58;;;;;;;20.07;11.60;;;11.90;99.90;;;-143.32;50.09;55517.72;4920750;29;20491;-92
2021/04/29 00:17:27;;;;;;;25.63;11.60;;;11.90;99.90;;;-143.32;50.33;55517.72;4921090;29;20506;-92
2021/04/29 00:20:22;;;;;;;20.70;12.83;;;11.90;99.90;;;-143.32;51.44;55529.84;4920464;29;20493;-89
2021/04/29 00:22:55;;;;;;;20.30;11.80;;;11.80;99.90;;;-143.32;52.00;55541.97;4920787;29;20770;-91
2021/04/29 00:25:23;;;;;;;19.37;12.00;;;11.70;99.90;;;-143.32;51.03;55531.88;4920978;29;20454;-89
2021/04/29 00:27:52;;;;;;;19.90;11.70;;;11.60;99.90;;;-143.32;52.30;55531.88;4920569;29;20455;-90
2021/04/29 00:30:21;;;;;;;29.23;12.00;;;11.50;99.90;;;-143.32;52.28;55515.72;4920650;29;20910;-91
2021/04/29 00:32:50;;;;;;;20.93;11.40;;;11.40;99.90;;;-143.32;53.44;55537.94;4920032;29;20538;-88
2021/04/29 00:35:29;;;;;;;24.97;12.83;;;11.30;99.90;;;-143.32;55.05;55517.72;4920287;29;20435;-89
2021/04/29 00:38:01;;;;;;;21.23;11.87;;;11.30;99.90;;;-143.32;55.01;55572.28;4920076;29;20469;-91
2021/04/29 00:40:45;;;;;;;21.20;11.90;;;11.20;99.90;;;-143.32;54.01;55562.19;4920559;29;20538;-90
2021/04/29 00:43:33;;;;;;;18.70;12.20;;;11.20;99.90;;;-143.32;55.37;55550.06;4920271;29;20435;-91
2021/04/29 00:46:51;;;;;;;20.20;13.00;;;11.10;99.90;;;-143.32;55.99;55541.97;4919789;29;20974;-90
2021/04/29 00:49:24;;;;;;;18.53;10.77;;;11.00;99.90;;;-143.32;58.27;55521.78;4920221;29;20791;-91
2021/04/29 00:52:22;;;;;;;19.87;11.90;;;11.00;99.90;;;-143.32;58.43;55529.84;4920994;29;20998;-93
2021/04/29 00:55:18;;;;;;;20.77;12.70;;;10.90;99.90;;;-143.32;58.79;55544.00;4919892;29;20577;-92
2021/04/29 00:58:52;;;;;;;;;;;;;;;;;;;;;
2021/04/29 01:24:54;;;;;;;19.97;12.37;;;11.10;99.90;;;-143.32;59.28;55513.69;4880087;29;20405;-90
2021/04/29 01:46:41;;;;;;;22.00;12.97;;;11.00;99.90;;;-143.32;63.02;55447.00;4919365;29;20452;-90
2021/04/29 02:04:04;;;;;;;21.17;12.60;;;10.90;99.90;;;-143.32;67.60;55457.09;4842104;29;20487;-90
2021/04/29 02:07:12;;;;;;;20.83;12.47;;;10.90;99.90;;;-143.32;66.86;55436.88;4842455;29;20463;-89
2021/04/29 02:10:25;;;;;;;20.30;12.13;;;10.90;99.90;;;-143.32;65.98;55469.22;4874776;29;20949;-91
2021/04/29 02:13:39;;;;;;;21.50;12.87;;;10.80;99.90;;;-143.32;66.27;55434.88;4918040;29;21021;-90
2021/04/29 02:17:28;;;;;;;25.10;12.70;;;10.90;99.90;;;-143.32;66.24;55418.69;4841471;29;20455;-89
2021/04/29 02:20:56;;;;;;;20.10;12.67;;;10.90;99.90;;;-143.32;66.06;55440.94;4814727;29;20469;-90
2021/04/29 02:33:39;;;;;;;21.63;12.53;;;11.10;99.90;;;-143.32;66.31;55436.88;4916421;29;20495;-89
2021/04/29 02:54:50;;;;;;;19.93;10.50;;;11.30;99.90;;;-143.32;71.01;55384.34;4808955;29;20522;-92
2021/04/29 03:15:35;;;;;;;19.40;8.60;;;11.80;5.20;;;-143.32;76.11;55291.38;4732731;30;20465;-89
2021/04/29 03:18:05;;;;;;;14.00;8.67;;;11.80;9.70;;;-143.32;76.49;55311.59;4749713;29;20463;-93
2021/04/29 03:20:52;;;;;;;14.80;8.83;;;11.90;1.00;;;-143.32;76.44;55289.38;4913216;29;20565;-93
2021/04/29 03:23:19;;;;;;;20.17;9.43;;;12.00;19.50;;;-143.32;76.83;55255.00;4917169;29;20458;-90
2021/04/29 03:26:10;;;;;;;17.43;8.73;;;11.90;13.90;;;-143.32;77.05;55257.03;4917358;29;20447;-93
2021/04/29 03:28:43;;;;;;;19.90;10.30;;;11.90;37.30;;;-143.32;77.27;55283.31;4918412;29;20477;-89
2021/04/29 03:31:35;;;;;;;;;;;;;;;;;;;;;
2021/04/29 03:34:37;;;;;;;16.83;9.63;;;11.90;91.50;;;-143.32;78.56;55255.00;4921749;29;20498;-91
2021/04/29 03:45:01;;;;;;;15.73;9.47;;;11.80;99.90;;;-143.32;79.01;55246.94;4881004;29;20437;-92
2021/04/29 03:50:49;;;;;;;18.43;11.03;;;11.80;99.90;;;-143.32;80.17;55257.03;4896600;29;20463;-92
2021/04/29 03:53:16;;;;;;;20.53;11.37;;;11.80;99.90;;;-143.32;80.21;55259.06;4921655;29;20526;-92
2021/04/29 03:55:43;;;;;;;27.30;11.17;;;11.70;99.90;;;-143.32;80.62;55238.84;4922192;29;20826;-93
2021/04/29 03:58:10;;;;;;;21.80;12.20;;;11.70;99.90;;;-143.32;80.92;55242.88;4922608;29;20450;-93
2021/04/29 04:00:43;;;;;;;20.10;11.40;;;11.60;99.90;;;-143.32;81.33;55238.84;4923714;29;20460;-92
2021/04/29 04:03:16;;;;;;;20.77;11.10;;;11.60;99.90;;;-143.32;81.59;55238.84;4925850;29;20503;-93
2021/04/29 04:05:43;;;;;;;21.47;11.63;;;11.60;99.90;;;-143.32;81.85;55244.91;4924799;29;20477;-91
2021/04/29 04:08:12;;;;;;;16.47;11.63;;;11.60;99.90;;;-143.32;82.01;55204.50;4924301;29;20419;-93
2021/04/29 04:10:39;;;;;;;18.97;12.57;;;11.50;99.90;;;-143.32;82.52;55204.50;4923765;29;20553;-91
2021/04/29 04:13:20;;;;;;;24.07;12.60;;;11.50;99.90;;;-143.32;82.62;55218.63;4924992;29;20450;-93
2021/04/29 04:16:00;;;;;;;28.30;11.77;;;11.50;99.90;;;-143.32;82.79;55212.56;4924791;29;20490;-92
2021/04/29 05:00:17;;;;;;;24.60;15.70;;;11.30;1.00;;;-143.32;77.43;55261.06;4844013;29;20475;-90
2021/04/29 05:06:50;;;;;;;25.17;15.80;;;11.30;1.00;;;-143.32;75.16;55273.19;4855037;29;20470;-92
2021/04/29 05:09:22;;;;;;;28.40;14.37;;;11.30;1.00;;;-143.32;73.12;55273.19;4859448;29;20427;-91
2021/04/29 05:11:56;;;;;;;28.13;15.83;;;11.30;1.00;;;-143.32;72.24;55323.72;4863307;29;20451;-91
2021/04/29 05:14:43;;;;;;;28.30;15.87;;;11.30;1.00;;;-143.32;71.19;55337.88;4935684;29;20487;-91
2021/04/29 05:17:21;;;;;;;33.67;15.60;;;11.40;1.00;;;-143.32;69.62;55327.75;4932934;29;20451;-91
2021/04/29 05:19:54;;;;;;;24.87;14.80;;;11.30;99.90;;;-143.32;69.84;55341.91;4931842;29;20465;-92
2021/04/29 05:22:32;;;;;;;27.70;16.73;;;11.30;99.90;;;-143.32;69.34;55345.94;4932651;29;20475;-91
2021/04/29 05:25:04;;;;;;;22.27;13.10;;;11.50;99.90;;;-143.32;68.82;55331.81;4931400;29;20521;-91
2021/04/29 08:42:59;;;;;;;29.13;21.90;;;15.60;99.90;;;-143.32;49.10;55196.41;5172323;23;20526;-93
2021/04/29 08:49:09;;;;;;;39.87;23.77;;;15.60;99.90;;;-143.32;52.22;55206.50;4924079;29;20414;-89
2021/04/29 08:51:39;;;;;;;49.70;27.10;;;15.60;99.90;;;-143.32;54.65;55186.31;4924690;29;20455;-91
2021/04/29 08:54:06;;;;;;;47.03;30.10;;;15.40;99.90;;;-143.32;56.33;55228.75;4922267;29;20524;-88
2021/04/29 08:56:35;;;;;;;46.50;28.30;;;15.00;99.90;;;-143.32;55.49;55212.56;4921857;29;20451;-93
2021/04/29 08:59:03;;;;;;;45.97;28.60;;;15.00;99.90;;;-143.32;55.41;55190.34;4925059;29;20514;-93
2021/04/29 09:05:22;;;;;;;50.93;28.77;;;15.30;99.90;;;-143.32;56.59;55210.56;4921740;29;20458;-91
2021/04/29 09:11:33;;;;;;;48.50;28.80;;;14.70;99.90;;;-143.32;55.13;55216.63;4922339;29;20917;-89
2021/04/29 09:14:03;;;;;;;48.57;30.53;;;14.80;99.90;;;-143.32;54.93;55190.34;4926887;29;20550;-91
2021/04/29 09:22:23;;;;;;;47.70;32.03;;;15.20;99.90;;;-143.32;56.04;55210.56;5091880;23;20542;-90
2021/04/29 09:24:53;;;;;;;50.10;34.13;;;15.10;99.90;;;-143.32;57.71;55190.34;4920853;29;20435;-93
2021/04/29 09:27:43;;;;;;;50.07;31.50;;;14.90;99.90;;;-143.32;56.93;55151.94;4925944;29;20443;-92
2021/04/29 09:34:01;;;;;;;50.80;33.80;;;15.20;99.90;;;-143.32;54.36;55158.00;4926455;29;20474;-92
2021/04/29 09:36:36;;;;;;;47.80;32.47;;;15.60;99.90;;;-143.32;55.89;55172.16;4933868;29;20463;-92
2021/04/29 09:47:14;;;;;;;49.63;30.87;;;14.80;99.90;;;-143.32;60.63;55212.56;4925254;29;20827;-91
2021/04/29 09:49:42;;;;;;;44.17;31.93;;;14.40;99.90;;;-143.32;62.21;55196.41;4919394;29;20945;-90
2021/04/29 09:52:28;;;;;;;52.33;31.83;;;14.00;99.90;;;-143.32;63.45;55198.44;4926662;29;20469;-91
2021/04/29 09:55:05;;;;;;;56.10;32.77;;;13.70;99.90;;;-143.32;63.09;55192.38;4924295;29;20510;-89
2021/04/29 09:57:34;;;;;;;47.07;30.87;;;13.90;99.90;;;-143.32;61.01;55210.56;4908771;29;20453;-88
2021/04/29 10:00:03;;;;;;;41.20;28.00;;;14.10;99.90;;;-143.32;59.93;55192.38;4904546;29;20463;-90
2021/04/29 10:02:41;;;;;;;39.83;24.90;;;14.20;99.90;;;-143.32;56.02;55232.78;4918372;29;20461;-89
2021/04/29 10:05:12;;;;;;;38.43;26.57;;;14.30;99.90;;;-143.32;55.53;55253.00;4918522;29;20474;-87
2021/04/29 10:07:38;;;;;;;39.80;26.37;;;14.40;99.90;;;-143.32;56.15;55244.91;4914666;29;20451;-86
2021/04/29 10:10:07;;;;;;;46.90;28.40;;;14.20;99.90;;;-143.32;58.39;55255.00;4902153;29;20452;-87
2021/04/29 10:12:33;;;;;;;37.63;26.17;;;14.10;99.90;;;-143.32;59.55;55232.78;4905139;29;20460;-93
2021/04/29 10:15:00;;;;;;;45.53;27.80;;;14.10;99.90;;;-143.32;57.41;55222.69;4899640;29;20503;-90
2021/04/29 10:17:27;;;;;;;38.00;24.80;;;14.40;99.90;;;-143.32;53.88;55242.88;4914926;29;20807;-89
2021/04/29 10:19:57;;;;;;;34.67;24.17;;;14.40;99.90;;;-143.32;52.81;55255.00;4911481;29;20448;-92
2021/04/29 10:22:26;;;;;;;54.23;24.40;;;14.50;99.90;;;-143.32;52.51;55230.75;4908492;29;20554;-90
2021/04/29 10:24:53;;;;;;;47.33;24.93;;;14.70;99.90;;;-143.32;52.23;55222.69;4902268;29;20511;-91
2021/04/29 10:27:25;;;;;;;36.80;24.53;;;14.90;99.90;;;-143.32;52.20;55232.78;4899599;29;20464;-88
2021/04/29 10:30:09;;;;;;;34.00;22.90;;;14.90;99.90;;;-143.32;50.40;55283.31;4899058;29;20480;-86
2021/04/29 10:32:37;;;;;;;29.97;21.00;;;14.70;99.90;;;-143.32;49.91;55265.13;4899314;29;20447;-86
2021/04/29 10:35:18;;;;;;;33.10;21.20;;;14.50;99.90;;;-143.32;48.10;55297.44;4899315;29;20506;-87
2021/04/29 10:37:59;;;;;;;44.17;21.67;;;14.60;99.90;;;-143.32;47.89;55273.19;4899655;29;20527;-87
2021/04/29 10:40:35;;;;;;;37.03;22.90;;;14.80;99.90;;;-143.32;48.06;55283.31;4899355;29;20440;-90
2021/04/29 10:43:02;;;;;;;40.17;23.13;;;14.90;99.90;;;-143.32;48.52;55242.88;4898636;29;20459;-86
2021/04/29 10:45:33;;;;;;;35.27;24.10;;;14.90;99.90;;;-143.32;49.24;55267.13;4899397;29;20452;-86
2021/04/29 10:48:08;;;;;;;25.80;18.17;;;14.90;99.90;;;-143.32;45.71;55283.31;4899252;29;20477;-86
2021/04/29 10:50:46;;;;;;;26.73;18.20;;;15.10;99.90;;;-143.32;43.92;55283.31;4898782;29;20459;-87
2021/04/29 10:53:34;;;;;;;55.40;20.67;;;15.50;99.90;;;-143.32;42.83;55259.06;4911124;29;20439;-88
2021/04/29 10:56:03;;;;;;;34.27;21.47;;;15.70;99.90;;;-143.32;42.82;55271.19;4907606;29;20504;-87
2021/04/29 10:58:30;;;;;;;37.97;19.67;;;15.90;99.90;;;-143.32;44.53;55263.09;4898667;29;20888;-87
2021/04/29 11:01:04;;;;;;;31.43;20.37;;;15.80;99.90;;;-143.32;46.71;55248.94;4898686;29;20440;-87
2021/04/29 11:03:34;;;;;;;35.17;22.60;;;15.60;99.90;;;-143.32;47.40;55242.88;4899089;29;20507;-88
2021/04/29 11:06:10;;;;;;;30.30;19.80;;;15.50;99.90;;;-143.32;45.61;55220.66;4898868;29;20480;-87
2021/04/29 11:08:44;;;;;;;32.83;16.53;;;15.60;99.90;;;-143.32;42.84;55291.38;4898476;29;20978;-91
2021/04/29 11:11:27;;;;;;;21.83;13.60;;;15.60;99.90;;;-143.32;42.40;55257.03;4901052;29;20441;-91
2021/04/29 11:14:09;;;;;;;24.23;14.50;;;15.60;99.90;;;-143.32;41.21;55303.50;4899696;29;20503;-90
2021/04/29 11:16:52;;;;;;;28.90;12.57;;;15.60;99.90;;;-143.32;41.92;55273.19;4900258;29;20459;-92
2021/04/29 11:19:39;;;;;;;19.10;13.27;;;15.60;99.90;;;-143.32;42.11;55307.56;4899610;29;20432;-91
2021/04/29 11:22:09;;;;;;;24.23;11.17;;;15.60;99.90;;;-143.32;39.39;55325.75;4899088;29;20488;-91
2021/04/29 11:24:40;;;;;;;24.93;10.30;;;15.70;99.90;;;-143.32;39.67;55319.69;4899206;29;20452;-90
2021/04/29 11:27:26;;;;;;;22.20;11.30;;;15.80;99.50;;;-143.32;40.95;55242.88;4899005;29;20803;-93
2021/04/29 11:30:00;;;;;;;21.20;11.40;;;16.00;99.90;;;-143.32;41.76;55273.19;4902038;29;20417;-93
2021/04/29 11:32:35;;;;;;;20.53;11.17;;;15.90;99.90;;;-143.32;42.10;55246.94;4904511;29;20456;-93
2021/04/29 11:35:33;;;;;;;17.50;9.83;;;15.90;99.90;;;-143.32;40.98;55295.44;4902857;29;20486;-92
2021/04/29 11:38:01;;;;;;;34.27;10.40;;;15.80;99.90;;;-143.32;40.06;55291.38;4900166;29;20515;-93
2021/04/29 11:40:36;;;;;;;22.53;10.93;;;15.80;98.10;;;-143.32;40.79;55303.50;4900650;29;20464;-92
2021/04/29 11:43:11;;;;;;;18.80;9.63;;;15.70;98.10;;;-143.32;41.58;55319.69;4905447;29;20490;-93
2021/04/29 11:48:25;;;;;;;23.73;9.97;;;15.60;99.90;;;-143.32;44.41;55281.28;4896033;29;20467;-90
2021/04/29 11:50:57;;;;;;;22.03;9.20;;;15.60;99.90;;;-143.32;45.25;55261.06;4902856;29;20531;-91
2021/04/29 11:53:27;;;;;;;22.00;9.50;;;15.50;99.90;;;-143.32;45.15;55307.56;4908003;29;20450;-91
2021/04/29 11:56:18;;;;;;;36.47;11.00;;;15.50;99.90;;;-143.32;43.83;55285.31;4910561;29;20448;-92
2021/04/29 11:59:02;;;;;;;19.40;9.40;;;15.50;99.90;;;-143.32;43.91;55289.38;4910448;29;20436;-91
2021/04/29 12:01:40;;;;;;;15.40;8.13;;;15.20;99.90;;;-143.32;44.84;55291.38;4910370;29;20459;-91
2021/04/29 12:11:44;;;;;;;18.73;9.23;;;15.10;99.90;;;-143.32;45.08;55319.69;4913245;29;20415;-92
2021/04/29 13:27:49;;;;;;;15.10;11.40;;;10.90;99.90;;;-143.32;82.06;55267.13;5859283;23;20773;-93
2021/04/29 13:30:18;;;;;;;17.07;11.40;;;11.00;99.90;;;-143.32;81.46;55218.63;4901469;29;20471;-93
2021/04/29 13:32:45;;;;;;;20.50;13.33;;;11.00;99.90;;;-143.32;81.66;55255.00;4901086;29;20453;-92
2021/04/29 13:35:14;;;;;;;21.90;11.23;;;11.00;99.90;;;-143.32;80.59;55228.75;4901634;29;20667;-92
2021/04/29 13:37:42;;;;;;;17.60;11.23;;;11.10;99.90;;;-143.32;80.18;55269.16;4901044;29;20959;-92
2021/04/29 13:40:21;;;;;;;18.97;11.77;;;11.10;99.90;;;-143.32;80.92;55261.06;4906909;29;20432;-92
2021/04/29 13:42:49;;;;;;;18.47;11.90;;;11.00;99.90;;;-143.32;81.81;55253.00;4900492;29;20511;-92
2021/04/29 13:45:17;;;;;;;17.27;10.30;;;11.00;99.90;;;-143.32;81.05;55257.03;4900756;29;20555;-93
2021/04/29 13:47:44;;;;;;;21.97;10.63;;;10.90;99.90;;;-143.32;81.83;55273.19;4901061;29;20464;-93
2021/04/29 13:50:12;;;;;;;14.83;10.50;;;10.50;99.90;;;-143.32;83.06;55261.06;4901267;29;20443;-93
2021/04/29 13:52:52;;;;;;;11.70;9.53;;;10.50;1.00;;;-143.32;83.13;55273.19;4900554;29;20444;-91
2021/04/29 13:55:21;;;;;;;16.53;9.40;;;10.60;1.00;;;-143.32;83.01;55257.03;4900621;29;20480;-91
2021/04/29 13:57:51;;;;;;;17.20;10.33;;;10.60;1.00;;;-143.32;82.38;55297.44;4900038;29;20547;-90
2021/04/29 14:00:18;;;;;;;16.43;11.77;;;10.70;99.90;;;-143.32;82.86;55299.47;4900218;29;20460;-88
2021/04/29 14:02:44;;;;;;;18.13;11.83;;;10.50;99.90;;;-143.32;83.70;55273.19;4900019;29;20508;-89
2021/04/29 14:08:54;;;;;;;23.10;14.97;;;10.40;1.00;;;-143.32;85.08;55248.94;4904979;29;20432;-93
2021/04/29 14:15:03;;;;;;;18.37;13.67;;;10.10;99.90;;;-143.32;93.75;55172.16;4903783;29;20459;-93
2021/04/29 14:17:30;;;;;;;22.97;15.53;;;10.00;99.90;;;-143.32;96.63;55202.47;4905265;29;20545;-91
2021/04/29 14:19:57;;;;;;;23.03;16.70;;;9.60;99.90;;;-143.32;98.43;55129.72;4903384;29;20460;-91
2021/04/29 14:22:24;;;;;;;24.00;16.50;;;9.50;99.90;;;-143.32;100.00;55119.63;4902925;29;20440;-92
2021/04/29 14:24:54;;;;;;;24.20;17.30;;;9.10;1.00;;;-143.32;100.00;55093.34;4903019;29;20448;-92
2021/04/29 14:27:23;;;;;;;24.00;17.57;;;9.00;1.00;;;-143.32;100.00;55006.47;4909983;29;20456;-93
2021/04/29 14:29:50;;;;;;;20.07;15.47;;;8.90;30.80;;;-143.32;100.00;54994.34;4907904;29;20460;-92
2021/04/29 14:32:33;;;;;;;15.00;12.30;;;8.70;99.90;;;-143.32;100.00;54980.19;4889615;29;20504;-90
2021/04/29 14:35:26;;;;;;;;;;;;;;;;;;;;;
2021/04/29 14:39:00;;;;;;;26.00;15.80;;;8.20;99.90;;;-143.32;100.00;54808.44;4918859;29;20456;-93
2021/04/29 14:42:41;;;;;;;;;;;;;;;;;;;;;
2021/04/29 14:48:58;;;;;;;16.30;12.40;;;7.70;99.90;;;-143.32;100.00;54683.16;4834885;29;20911;-91
2021/04/29 14:51:26;;;;;;;18.63;14.80;;;7.80;99.90;;;-143.32;100.00;54654.88;4895012;29;20448;-94
2021/04/29 14:54:06;;;;;;;21.63;16.00;;;7.70;99.90;;;-143.32;100.00;54685.19;4906629;29;20487;-92
2021/04/29 15:00:32;;;;;;;24.23;18.00;;;7.90;99.90;;;-143.32;100.00;54533.66;4904294;29;20462;-93
2021/04/29 15:03:05;;;;;;;22.80;16.77;;;8.10;99.90;;;-143.32;100.00;54549.81;4906525;29;20444;-92
2021/04/29 15:09:20;;;;;;;20.83;15.80;;;8.30;99.90;;;-143.32;100.00;54578.09;4961783;23;20651;-93
2021/04/29 15:18:24;;;;;;;25.77;15.20;;;8.20;99.90;;;-143.32;100.00;54638.72;4789741;27;20859;-93
2021/04/29 15:24:45;;;;;;;22.00;14.60;;;8.40;63.50;;;-143.32;100.00;54679.13;4903163;29;20471;-93
2021/04/29 15:27:12;;;;;;;21.30;14.90;;;8.50;1.00;;;-143.32;100.00;54693.28;4905497;29;20915;-92
2021/04/29 15:29:40;;;;;;;21.90;15.37;;;8.50;99.90;;;-143.32;100.00;54753.88;4906603;29;20460;-92
2021/04/29 15:32:10;;;;;;;19.67;15.03;;;8.70;99.90;;;-143.32;99.80;54776.09;4905329;29;20448;-92
2021/04/29 15:34:42;;;;;;;22.00;15.83;;;8.60;1.00;;;-143.32;99.25;54761.97;4904760;29;20465;-91
2021/04/29 15:37:26;;;;;;;30.97;15.37;;;8.50;1.00;;;-143.32;99.52;54786.22;4903167;29;20459;-92
2021/04/29 15:43:26;;;;;;;18.93;11.97;;;8.70;1.00;;;-143.32;94.38;54891.28;4888345;29;20455;-91
2021/04/29 15:45:56;;;;;;;20.13;12.40;;;8.80;99.90;;;-143.32;94.25;54933.72;4898148;29;20444;-91
2021/04/29 15:48:23;;;;;;;18.70;11.70;;;8.90;1.00;;;-143.32;93.49;54925.63;4897881;29;20566;-89
2021/04/29 15:50:51;;;;;;;17.30;11.67;;;8.90;99.90;;;-143.32;92.39;54903.41;4898323;29;20460;-91
2021/04/29 15:57:45;;;;;;;15.70;10.60;;;9.20;1.00;;;-143.32;91.41;54988.28;4884090;29;20470;-92
2021/04/29 16:00:14;;;;;;;19.90;11.50;;;9.10;99.90;;;-143.32;91.50;54945.84;4892031;29;20465;-92
2021/04/29 16:02:42;;;;;;;15.77;10.60;;;9.10;1.00;;;-143.32;91.08;54976.16;4885982;29;20453;-90
2021/04/29 16:05:12;;;;;;;18.63;11.13;;;9.00;99.90;;;-143.32;90.10;54992.31;4879762;29;20798;-91
2021/04/29 16:07:40;;;;;;;16.60;11.30;;;9.10;99.90;;;-143.32;90.76;55006.47;4896384;29;20444;-89
2021/04/29 16:10:10;;;;;;;19.43;11.60;;;9.00;99.90;;;-143.32;90.46;54998.38;4899074;29;20750;-91
2021/04/29 16:12:38;;;;;;;14.97;10.03;;;9.00;99.90;;;-143.32;90.40;55002.41;4898784;29;20500;-90
2021/04/29 16:15:08;;;;;;;19.37;10.27;;;9.00;99.90;;;-143.32;90.50;54959.97;4897782;29;20499;-88
2021/04/29 16:17:35;;;;;;;23.33;10.77;;;9.00;99.90;;;-143.32;90.30;55026.66;4898629;29;20460;-91
2021/04/29 16:20:12;;;;;;;16.67;9.73;;;8.90;99.90;;;-143.32;89.98;55018.59;4898093;29;20444;-91
2021/04/29 16:26:22;;;;;;;14.53;7.70;;;8.90;99.90;;;-143.32;89.15;55079.19;4906096;29;20404;-94
2021/04/29 16:28:52;;;;;;;16.60;8.70;;;8.90;1.00;;;-143.32;88.75;55075.16;4909029;29;20448;-94
2021/04/29 16:31:19;;;;;;;21.37;8.40;;;8.50;1.00;;;-143.32;89.24;55081.22;4905679;29;20963;-92
2021/04/29 16:33:46;;;;;;;15.07;8.47;;;8.80;5.00;;;-143.32;88.90;55085.25;4907398;29;20483;-91
2021/04/29 16:36:13;;;;;;;15.27;8.27;;;8.80;1.00;;;-143.32;88.46;55065.06;4899361;29;20528;-91
2021/04/29 16:38:40;;;;;;;13.43;7.87;;;8.90;1.00;;;-143.32;87.03;55067.06;4887289;29;20861;-90
2021/04/29 16:41:07;;;;;;;17.07;7.90;;;9.10;1.00;;;-143.32;87.37;55063.03;4880967;29;20802;-89
2021/04/29 16:43:33;;;;;;;12.47;7.90;;;9.00;1.00;;;-143.32;88.31;55117.59;4883083;29;20487;-89
2021/04/29 16:46:01;;;;;;;13.87;7.23;;;9.00;1.00;;;-143.32;89.14;55067.06;4882590;29;20460;-90
2021/04/29 16:52:09;;;;;;;18.63;7.90;;;8.90;99.90;;;-143.32;88.98;55048.88;4882240;29;20936;-88
2021/04/29 16:54:36;;;;;;;13.73;7.70;;;8.80;1.00;;;-143.32;88.80;55093.34;4882282;29;20500;-89
2021/04/29 16:57:03;;;;;;;16.33;7.60;;;8.80;1.00;;;-143.32;88.92;55087.28;4882404;29;20505;-91
2021/04/29 17:03:14;;;;;;;23.63;7.63;;;8.70;31.70;;;-143.32;87.53;55101.44;4882263;29;20457;-89
2021/04/29 17:05:41;;;;;;;17.93;7.97;;;8.60;1.00;;;-143.32;87.52;55101.44;4882110;29;21002;-89
2021/04/29 17:11:51;;;;;;;14.10;8.33;;;8.70;99.90;;;-143.32;85.75;55127.69;4892645;29;20481;-91
2021/04/29 17:14:23;;;;;;;14.60;7.40;;;8.70;99.90;;;-143.32;85.98;55178.22;4894177;29;20485;-91
2021/04/29 17:16:50;;;;;;;11.07;6.67;;;8.60;99.90;;;-143.32;86.56;55121.63;4898870;29;20457;-95
2021/04/29 17:19:18;;;;;;;12.17;7.50;;;8.70;1.00;;;-143.32;85.73;55135.78;4886911;29;20437;-89
2021/04/29 17:21:48;;;;;;;10.33;6.20;;;8.70;99.90;;;-143.32;85.27;55180.25;4893285;29;20457;-91
2021/04/29 17:24:15;;;;;;;12.50;7.77;;;8.70;99.90;;;-143.32;85.21;55135.78;4894238;29;20440;-91
2021/04/29 17:26:42;;;;;;;13.50;7.47;;;8.80;99.90;;;-143.32;84.66;55131.75;4885995;29;20778;-90
2021/04/29 17:29:09;;;;;;;14.13;7.30;;;8.70;99.90;;;-143.32;83.92;55168.13;4881976;29;20499;-90
2021/04/29 17:31:36;;;;;;;11.87;7.30;;;8.70;99.90;;;-143.32;83.76;55178.22;4889832;29;20453;-93
2021/04/29 17:37:45;;;;;;;10.97;7.00;;;8.70;99.90;;;-143.32;84.02;55160.03;4881624;29;20470;-90
2021/04/29 17:40:17;;;;;;;10.63;6.70;;;8.70;99.90;;;-143.32;84.08;55170.13;4881706;29;20465;-90
2021/04/29 17:42:47;;;;;;;14.60;6.97;;;8.60;99.90;;;-143.32;84.18;55162.06;4882105;29;20469;-88
2021/04/29 17:45:17;;;;;;;11.53;7.10;;;8.50;99.90;;;-143.32;83.71;55182.25;4881856;29;20948;-89
2021/04/29 17:47:48;;;;;;;12.67;7.70;;;8.60;99.90;;;-143.32;83.69;55186.31;4882411;29;20536;-90
2021/04/29 17:50:15;;;;;;;12.10;7.53;;;8.60;99.90;;;-143.32;83.84;55186.31;4882200;29;20445;-89
2021/04/29 17:52:42;;;;;;;12.13;7.60;;;8.50;99.90;;;-143.32;84.12;55196.41;4880587;29;20449;-89
2021/04/29 17:55:28;;;;;;;16.77;6.87;;;8.40;99.90;;;-143.32;84.59;55182.25;4882311;29;21119;-90
2021/04/29 17:57:55;;;;;;;17.43;7.50;;;8.40;99.90;;;-143.32;84.84;55174.19;4881671;29;20449;-92
2021/04/29 18:00:23;;;;;;;13.43;7.40;;;8.40;99.90;;;-143.32;85.19;55192.38;4885239;29;20446;-93
2021/04/29 18:02:52;;;;;;;21.13;8.80;;;8.40;99.90;;;-143.32;85.99;55196.41;4883647;29;20445;-91
2021/04/29 18:05:29;;;;;;;12.37;6.97;;;8.30;99.90;;;-143.32;86.06;55188.31;4882465;29;20450;-89
2021/04/29 18:08:00;;;;;;;21.97;7.83;;;8.30;99.90;;;-143.32;86.62;55156.00;4881147;29;20508;-93
2021/04/29 18:10:27;;;;;;;15.73;8.60;;;8.30;99.90;;;-143.32;86.74;55168.13;4885838;29;20831;-91
2021/04/29 18:16:35;;;;;;;13.57;8.00;;;8.20;1.00;;;-143.32;86.94;55164.06;4880778;29;20437;-89
2021/04/29 18:22:43;;;;;;;10.43;6.87;;;8.20;1.00;;;-143.32;87.34;55151.94;4880846;29;20419;-89
2021/04/29 18:25:12;;;;;;;14.70;7.93;;;8.40;1.00;;;-143.32;88.18;55174.19;4880993;29;20485;-88
2021/04/29 18:27:40;;;;;;;15.77;7.97;;;8.30;1.00;;;-143.32;88.74;55147.91;4895381;29;20500;-90
2021/04/29 18:30:15;;;;;;;12.90;7.37;;;8.40;1.00;;;-143.32;88.38;55174.19;4900233;29;20835;-92
2021/04/29 18:32:42;;;;;;;16.73;7.80;;;8.40;1.00;;;-143.32;89.78;55143.88;4900077;29;20417;-87
2021/04/29 18:35:24;;;;;;;10.77;6.87;;;8.30;75.40;;;-143.32;90.33;55153.97;4899371;29;20491;-91
2021/04/29 18:37:52;;;;;;;16.53;7.67;;;8.40;99.90;;;-143.32;90.96;55101.44;4899037;29;20447;-88
2021/04/29 18:40:22;;;;;;;11.13;7.07;;;8.40;99.90;;;-143.32;90.56;55133.75;4899480;29;20459;-87
2021/04/29 18:43:10;;;;;;;16.30;8.60;;;8.40;99.90;;;-143.32;90.31;55129.72;4898955;29;20797;-89
2021/04/29 18:52:57;;;;;;;16.70;7.63;;;8.30;99.90;;;-143.32;91.64;55127.69;4857129;29;20447;-87
2021/04/29 18:58:26;;;;;;;13.63;8.67;;;8.20;99.90;;;-143.32;90.74;55137.81;4879178;29;20528;-86
2021/04/29 19:00:54;;;;;;;12.07;6.80;;;8.40;1.00;;;-143.32;91.60;55129.72;4896007;29;20451;-87
2021/04/29 19:03:20;;;;;;;14.13;7.77;;;8.40;1.00;;;-143.32;92.35;55081.22;4898789;29;20453;-85
2021/04/29 19:05:47;;;;;;;15.17;7.20;;;8.40;1.00;;;-143.32;91.97;55109.50;4899207;29;20452;-87
2021/04/29 19:08:14;;;;;;;16.83;7.80;;;8.40;1.00;;;-143.32;92.65;55091.31;4898890;29;20462;-86
2021/04/29 19:10:41;;;;;;;14.80;7.43;;;8.40;99.90;;;-143.32;92.98;55143.88;4899580;29;20892;-85
2021/04/29 19:13:07;;;;;;;19.03;8.27;;;8.30;99.90;;;-143.32;93.28;55091.31;4899385;29;20804;-86
2021/04/29 19:15:35;;;;;;;15.17;9.13;;;8.30;1.00;;;-143.32;94.05;55067.06;4898766;29;20491;-88
2021/04/29 19:18:01;;;;;;;12.53;7.97;;;8.30;1.00;;;-143.32;92.86;55109.50;4898489;29;20464;-85
2021/04/29 19:20:29;;;;;;;12.73;8.20;;;8.40;1.00;;;-143.32;91.52;55125.69;4898468;29;20456;-88
2021/04/29 19:22:56;;;;;;;15.50;7.93;;;8.40;1.00;;;-143.32;92.78;55115.56;4899473;29;20788;-87
2021/04/29 19:25:23;;;;;;;14.43;9.00;;;8.40;99.90;;;-143.32;93.17;55071.13;4898423;29;20987;-88
2021/04/29 19:27:50;;;;;;;17.37;9.17;;;8.30;99.90;;;-143.32;93.30;55111.53;4898412;29;20460;-86
2021/04/29 19:30:20;;;;;;;17.80;8.97;;;8.40;99.90;;;-143.32;91.23;55131.75;4898282;29;20503;-86
2021/04/29 19:32:50;;;;;;;16.53;9.47;;;8.40;1.00;;;-143.32;92.17;55085.25;4898248;29;20567;-86
2021/04/29 19:35:18;;;;;;;14.10;8.40;;;8.40;23.40;;;-143.32;90.53;55123.66;4898204;29;20484;-86
2021/04/29 19:37:45;;;;;;;17.07;8.57;;;8.40;1.00;;;-143.32;92.24;55113.56;4906757;29;20461;-92
2021/04/29 19:40:14;;;;;;;21.63;10.10;;;8.40;1.00;;;-143.32;94.51;55083.25;4904067;29;20546;-85
2021/04/29 19:46:23;;;;;;;20.03;10.93;;;8.20;1.00;;;-143.32;98.39;55071.13;4915991;29;20490;-90